createdAt,value
2023-02-21T00:02:09.735Z,98953.41
2023-02-21T00:05:55.580Z,98957.13
2023-02-21T00:09:38.682Z,98944.44
2023-02-21T00:13:19.596Z,98947.31
2023-02-21T00:16:59.985Z,98939.59
2023-02-21T00:20:40.264Z,98933.41
2023-02-21T00:24:20.733Z,98930.34
2023-02-21T00:28:01.340Z,98921.94
2023-02-21T00:31:46.758Z,98929.03
2023-02-21T00:35:33.990Z,98914.31
2023-02-21T00:39:23.188Z,98917.50
2023-02-21T00:43:09.651Z,98913.88
2023-02-21T00:47:00.624Z,98905.06
2023-02-21T00:50:42.388Z,98891.31
2023-02-21T00:54:22.910Z,98896.66
2023-02-21T00:58:03.565Z,98902.78
2023-02-21T01:01:45.199Z,98909.91
2023-02-21T01:05:30.661Z,98901.16
2023-02-21T01:09:11.154Z,98900.03
2023-02-21T01:12:56.548Z,98891.41
2023-02-21T01:16:53.030Z,98884.44
2023-02-21T01:20:40.808Z,98893.25
2023-02-21T01:24:31.430Z,98880.44
2023-02-21T01:28:18.360Z,98879.69
2023-02-21T01:32:02.954Z,98883.06
2023-02-21T01:35:59.084Z,98870.53
2023-02-21T01:39:39.842Z,98872.00
2023-02-21T01:43:49.700Z,98871.66
2023-02-21T01:47:38.706Z,98864.19
2023-02-21T01:51:49.774Z,98866.81
2023-02-21T01:55:38.079Z,98866.81
2023-02-21T01:59:24.376Z,98858.66
2023-02-21T02:03:29.428Z,98851.03
2023-02-21T02:07:10.414Z,98854.44
2023-02-21T02:10:51.130Z,98842.06
2023-02-21T02:15:06.843Z,98835.78
2023-02-21T02:19:00.840Z,98845.59
2023-02-21T02:22:47.462Z,98832.56
2023-02-21T02:26:36.603Z,98825.25
2023-02-21T02:31:01.329Z,98833.22
2023-02-21T02:34:56.644Z,98821.00
2023-02-21T02:39:21.324Z,98828.63
2023-02-21T02:43:08.619Z,98812.84
2023-02-21T02:46:37.233Z,98815.56
2023-02-21T02:50:01.724Z,98819.28
2023-02-21T02:53:29.791Z,98817.50
2023-02-21T02:56:54.082Z,98821.66
2023-02-21T03:00:19.066Z,98816.09
2023-02-21T03:04:16.727Z,98820.69
2023-02-21T03:08:12.456Z,98821.28
2023-02-21T03:12:03.477Z,98829.16
2023-02-21T03:16:04.537Z,98824.50
2023-02-21T03:19:39.882Z,98821.34
2023-02-21T03:23:05.351Z,98831.22
2023-02-21T03:26:36.886Z,98837.03
2023-02-21T03:30:20.124Z,98828.72
2023-02-21T03:33:45.390Z,98846.97
2023-02-21T03:37:20.765Z,98839.06
2023-02-21T03:40:44.714Z,98837.78
2023-02-21T03:44:06.605Z,98843.03
2023-02-21T03:47:28.746Z,98839.66
2023-02-21T03:51:00.538Z,98839.75
2023-02-21T03:54:28.175Z,98829.09
2023-02-21T03:57:52.828Z,98829.44
2023-02-21T04:01:16.244Z,98830.97
2023-02-21T04:04:42.826Z,98825.41
2023-02-21T04:08:18.389Z,98834.47
2023-02-21T04:11:45.943Z,98825.34
2023-02-21T04:15:08.771Z,98824.69
2023-02-21T04:18:30.704Z,98831.78
2023-02-21T04:22:04.118Z,98823.28
2023-02-21T04:25:45.038Z,98823.28
2023-02-21T04:29:12.542Z,98825.31
2023-02-21T04:32:35.329Z,98829.13
2023-02-21T04:36:03.043Z,98830.91
2023-02-21T04:39:37.888Z,98830.53
2023-02-21T04:43:00.824Z,98831.66
2023-02-21T04:46:24.998Z,98823.81
2023-02-21T04:49:51.475Z,98832.22
2023-02-21T04:53:13.745Z,98821.81
2023-02-21T04:56:35.700Z,98821.72
2023-02-21T05:00:00.027Z,98828.28
2023-02-21T05:03:22.000Z,98815.06
2023-02-21T05:06:43.837Z,98820.06
2023-02-21T05:10:06.127Z,98819.91
2023-02-21T05:13:29.054Z,98825.16
2023-02-21T05:16:51.100Z,98812.72
2023-02-21T05:20:17.095Z,98816.50
2023-02-21T05:23:56.155Z,98815.28
2023-02-21T05:27:20.944Z,98824.59
2023-02-21T05:30:49.952Z,98816.97
2023-02-21T05:34:14.464Z,98822.34
2023-02-21T05:37:36.453Z,98814.41
2023-02-21T05:40:58.373Z,98809.22
2023-02-21T05:44:21.167Z,98811.28
2023-02-21T05:47:43.115Z,98815.94
2023-02-21T05:51:05.300Z,98804.66
2023-02-21T05:54:33.142Z,98812.06
2023-02-21T05:57:56.019Z,98822.09
2023-02-21T06:01:18.124Z,98822.78
2023-02-21T06:04:40.354Z,98815.59
2023-02-21T06:08:03.253Z,98824.31
2023-02-21T06:11:37.429Z,98819.72
2023-02-21T06:15:00.382Z,98818.75
2023-02-21T06:18:23.296Z,98815.81
2023-02-21T06:21:46.485Z,98815.75
2023-02-21T06:25:11.505Z,98813.41
2023-02-21T06:28:36.623Z,98809.84
2023-02-21T06:32:05.631Z,98813.06
2023-02-21T06:35:33.888Z,98812.47
2023-02-21T06:38:58.006Z,98821.69
2023-02-21T06:42:20.177Z,98806.47
2023-02-21T06:45:42.037Z,98803.25
2023-02-21T06:49:08.128Z,98805.06
2023-02-21T06:52:34.049Z,98806.94
2023-02-21T06:55:59.118Z,98815.59
2023-02-21T06:59:21.969Z,98798.38
2023-02-21T07:02:44.593Z,98813.56
2023-02-21T07:06:06.612Z,98815.66
2023-02-21T07:09:37.338Z,98819.25
2023-02-21T07:12:59.179Z,98815.28
2023-02-21T07:16:21.314Z,98817.16
2023-02-21T07:19:44.206Z,98822.56
2023-02-21T07:23:07.150Z,98819.56
2023-02-21T07:26:29.061Z,98816.97
2023-02-21T07:29:51.939Z,98814.59
2023-02-21T07:33:13.877Z,98806.31
2023-02-21T07:36:40.051Z,98807.81
2023-02-21T07:40:02.367Z,98811.91
2023-02-21T07:43:32.318Z,98804.88
2023-02-21T07:46:56.983Z,98805.69
2023-02-21T07:50:19.115Z,98811.25
2023-02-21T07:53:41.169Z,98806.34
2023-02-21T07:57:05.009Z,98797.28
2023-02-21T08:00:28.980Z,98799.97
2023-02-21T08:03:50.928Z,98798.44
2023-02-21T08:07:12.982Z,98793.91
2023-02-21T08:10:37.291Z,98791.41
2023-02-21T08:14:13.313Z,98794.97
2023-02-21T08:17:35.184Z,98793.63
2023-02-21T08:20:57.387Z,98799.22
2023-02-21T08:24:20.324Z,98793.91
2023-02-21T08:27:43.161Z,98782.44
2023-02-21T08:31:05.298Z,98787.44
2023-02-21T08:34:30.262Z,98783.81
2023-02-21T08:37:56.694Z,98796.63
2023-02-21T08:41:20.586Z,98776.22
2023-02-21T08:44:46.985Z,98785.13
2023-02-21T08:48:12.299Z,98766.97
2023-02-21T08:51:35.272Z,98773.53
2023-02-21T08:54:57.281Z,98764.69
2023-02-21T08:58:19.239Z,98760.97
2023-02-21T09:01:41.114Z,98761.50
2023-02-21T09:05:03.117Z,98763.25
2023-02-21T09:08:26.703Z,98755.38
2023-02-21T09:11:49.375Z,98745.59
2023-02-21T09:15:19.518Z,98742.44
2023-02-21T09:18:42.531Z,98742.97
2023-02-21T09:22:09.125Z,98730.34
2023-02-21T09:25:32.034Z,98734.63
2023-02-21T09:28:54.033Z,98729.03
2023-02-21T09:32:18.917Z,98730.38
2023-02-21T09:35:53.932Z,98719.38
2023-02-21T09:39:16.276Z,98714.44
2023-02-21T09:42:38.226Z,98720.25
2023-02-21T09:46:07.408Z,98712.56
2023-02-21T09:49:44.927Z,98705.47
2023-02-21T09:53:09.327Z,98700.56
2023-02-21T09:56:40.389Z,98698.97
2023-02-21T10:00:36.109Z,98695.31
2023-02-21T10:04:28.429Z,98689.88
2023-02-21T10:08:13.418Z,98690.34
2023-02-21T10:11:58.814Z,98696.81
2023-02-21T10:15:47.367Z,98687.38
2023-02-21T10:19:09.208Z,98694.00
2023-02-21T10:22:42.766Z,98692.13
2023-02-21T10:26:10.790Z,98687.22
2023-02-21T10:30:11.121Z,98689.09
2023-02-21T10:33:38.294Z,98686.34
2023-02-21T10:37:42.004Z,98687.81
2023-02-21T10:41:05.966Z,98686.50
2023-02-21T10:44:35.233Z,98685.81
2023-02-21T10:48:08.933Z,98686.41
2023-02-21T10:51:35.126Z,98685.19
2023-02-21T10:55:31.297Z,98686.03
2023-02-21T10:59:07.106Z,98680.59
2023-02-21T11:02:40.729Z,98684.41
2023-02-21T11:06:03.883Z,98680.41
2023-02-21T11:09:35.087Z,98679.59
2023-02-21T11:13:14.596Z,98661.13
2023-02-21T11:16:37.410Z,98659.06
2023-02-21T11:20:19.071Z,98658.81
2023-02-21T11:23:58.984Z,98641.84
2023-02-21T11:27:21.423Z,98641.84
2023-02-21T11:31:10.140Z,98639.28
2023-02-21T11:34:33.187Z,98631.97
2023-02-21T11:38:03.803Z,98635.81
2023-02-21T11:41:47.597Z,98629.59
2023-02-21T11:45:21.857Z,98619.41
2023-02-21T11:49:12.130Z,98614.25
2023-02-21T11:53:17.501Z,98615.09
2023-02-21T11:57:04.369Z,98604.44
2023-02-21T12:01:06.339Z,98595.88
2023-02-21T12:04:39.730Z,98593.72
2023-02-21T12:08:35.195Z,98595.22
2023-02-21T12:12:41.408Z,98579.66
2023-02-21T12:16:30.316Z,98578.81
2023-02-21T12:20:24.266Z,98583.34
2023-02-21T12:24:30.776Z,98572.94
2023-02-21T12:28:20.881Z,98562.22
2023-02-21T12:32:05.591Z,98559.88
2023-02-21T12:35:54.645Z,98558.56
2023-02-21T12:40:00.218Z,98557.84
2023-02-21T12:43:56.414Z,98553.50
2023-02-21T12:47:35.516Z,98538.78
2023-02-21T12:51:06.446Z,98547.16
2023-02-21T12:54:43.303Z,98537.44
2023-02-21T12:59:07.567Z,98532.25
2023-02-21T13:02:50.457Z,98527.72
2023-02-21T13:06:39.817Z,98522.38
2023-02-21T13:10:24.448Z,98514.34
2023-02-21T13:13:48.886Z,98513.00
2023-02-21T13:17:16.701Z,98503.63
2023-02-21T13:21:00.472Z,98496.44
2023-02-21T13:24:29.971Z,98496.44
2023-02-21T13:28:27.614Z,98491.41
2023-02-21T13:32:08.533Z,98489.72
2023-02-21T13:35:38.282Z,98492.41
2023-02-21T13:39:09.380Z,98488.06
2023-02-21T13:42:37.692Z,98486.88
2023-02-21T13:46:31.755Z,98485.88
2023-02-21T13:49:59.100Z,98474.13
2023-02-21T13:53:33.914Z,98474.47
2023-02-21T13:56:55.774Z,98462.75
2023-02-21T14:00:30.666Z,98464.06
2023-02-21T14:03:58.044Z,98461.59
2023-02-21T14:07:46.725Z,98452.16
2023-02-21T14:11:12.478Z,98446.47
2023-02-21T14:14:47.183Z,98440.28
2023-02-21T14:18:27.703Z,98428.03
2023-02-21T14:22:26.960Z,98428.22
2023-02-21T14:26:02.402Z,98427.72
2023-02-21T14:30:03.204Z,98428.56
2023-02-21T14:33:26.585Z,98426.88
2023-02-21T14:37:03.699Z,98422.66
2023-02-21T14:40:45.078Z,98414.31
2023-02-21T14:44:20.734Z,98405.47
2023-02-21T14:48:35.640Z,98410.81
2023-02-21T14:52:41.149Z,98401.94
2023-02-21T14:56:43.954Z,98401.47
2023-02-21T15:00:40.108Z,98406.00
2023-02-21T15:04:38.313Z,98403.84
2023-02-21T15:08:24.937Z,98397.00
2023-02-21T15:11:49.266Z,98401.66
2023-02-21T15:15:42.111Z,98410.56
2023-02-21T15:19:03.972Z,98401.78
2023-02-21T15:22:27.847Z,98404.69
2023-02-21T15:26:10.124Z,98401.69
2023-02-21T15:29:33.062Z,98396.16
2023-02-21T15:33:17.481Z,98399.31
2023-02-21T15:36:42.155Z,98400.19
2023-02-21T15:40:18.513Z,98395.66
2023-02-21T15:43:51.344Z,98393.84
2023-02-21T15:47:22.066Z,98394.47
2023-02-21T15:50:47.179Z,98385.19
2023-02-21T15:54:18.295Z,98390.03
2023-02-21T15:57:40.212Z,98384.41
2023-02-21T16:01:11.776Z,98384.88
2023-02-21T16:04:42.981Z,98383.59
2023-02-21T16:08:05.167Z,98383.75
2023-02-21T16:11:39.734Z,98384.09
2023-02-21T16:15:19.222Z,98379.03
2023-02-21T16:18:41.360Z,98380.34
2023-02-21T16:22:29.425Z,98386.88
2023-02-21T16:26:16.777Z,98392.03
2023-02-21T16:29:45.548Z,98386.63
2023-02-21T16:33:16.463Z,98387.28
2023-02-21T16:36:40.832Z,98384.78
2023-02-21T16:40:16.171Z,98382.63
2023-02-21T16:43:50.941Z,98392.31
2023-02-21T16:47:17.925Z,98380.75
2023-02-21T16:50:40.679Z,98380.38
2023-02-21T16:54:13.777Z,98388.25
2023-02-21T16:57:36.665Z,98387.09
2023-02-21T17:01:14.736Z,98388.72
2023-02-21T17:04:37.933Z,98379.56
2023-02-21T17:08:02.836Z,98374.56
2023-02-21T17:11:26.710Z,98369.84
2023-02-21T17:14:49.687Z,98373.09
2023-02-21T17:18:12.508Z,98379.44
2023-02-21T17:21:40.636Z,98382.88
2023-02-21T17:25:07.096Z,98385.16
2023-02-21T17:28:31.094Z,98392.03
2023-02-21T17:32:02.885Z,98398.75
2023-02-21T17:35:25.004Z,98396.88
2023-02-21T17:38:46.963Z,98400.34
2023-02-21T17:42:08.875Z,98391.94
2023-02-21T17:45:30.813Z,98395.63
2023-02-21T17:48:52.691Z,98395.81
2023-02-21T17:52:15.942Z,98401.34
2023-02-21T17:55:39.908Z,98395.53
2023-02-21T17:59:01.872Z,98395.94
2023-02-21T18:02:36.721Z,98402.13
2023-02-21T18:05:59.797Z,98402.41
2023-02-21T18:09:24.104Z,98404.81
2023-02-21T18:12:48.686Z,98399.94
2023-02-21T18:16:15.409Z,98397.13
2023-02-21T18:19:37.321Z,98401.00
2023-02-21T18:23:03.509Z,98401.00
2023-02-21T18:26:27.587Z,98399.84
2023-02-21T18:29:56.631Z,98389.53
2023-02-21T18:33:20.508Z,98394.94
2023-02-21T18:36:50.321Z,98399.44
2023-02-21T18:40:15.899Z,98393.69
2023-02-21T18:43:40.657Z,98386.50
2023-02-21T18:47:10.011Z,98399.56
2023-02-21T18:50:35.352Z,98389.78
2023-02-21T18:54:03.949Z,98382.38
2023-02-21T18:57:32.254Z,98386.50
2023-02-21T19:00:59.923Z,98385.47
2023-02-21T19:04:23.198Z,98375.84
2023-02-21T19:07:46.261Z,98385.59
2023-02-21T19:11:09.306Z,98381.53
2023-02-21T19:14:35.421Z,98389.69
2023-02-21T19:17:59.081Z,98385.25
2023-02-21T19:21:23.212Z,98380.16
2023-02-21T19:24:45.153Z,98387.72
2023-02-21T19:28:10.033Z,98374.69
2023-02-21T19:31:36.819Z,98386.22
2023-02-21T19:34:58.671Z,98380.53
2023-02-21T19:38:21.901Z,98377.16
2023-02-21T19:41:58.886Z,98384.69
2023-02-21T19:45:22.838Z,98387.78
2023-02-21T19:48:47.023Z,98385.03
2023-02-21T19:52:11.145Z,98389.69
2023-02-21T19:55:33.337Z,98376.78
2023-02-21T19:58:55.511Z,98383.28
2023-02-21T20:02:19.915Z,98381.94
2023-02-21T20:05:43.883Z,98377.97
2023-02-21T20:09:12.955Z,98380.69
2023-02-21T20:12:35.176Z,98368.47
2023-02-21T20:15:58.104Z,98372.50
2023-02-21T20:19:23.200Z,98373.81
2023-02-21T20:22:45.127Z,98365.88
2023-02-21T20:26:13.738Z,98370.31
2023-02-21T20:29:36.499Z,98370.75
2023-02-21T20:32:59.273Z,98364.22
2023-02-21T20:36:37.937Z,98366.91
2023-02-21T20:40:01.398Z,98365.44
2023-02-21T20:43:25.442Z,98358.06
2023-02-21T20:46:48.503Z,98366.59
2023-02-21T20:50:10.535Z,98360.81
2023-02-21T20:53:36.583Z,98364.84
2023-02-21T20:57:00.950Z,98360.19
2023-02-21T21:00:25.014Z,98362.38
2023-02-21T21:03:46.896Z,98351.56
2023-02-21T21:07:14.381Z,98353.03
2023-02-21T21:10:37.347Z,98368.22
2023-02-21T21:14:04.279Z,98359.56
2023-02-21T21:17:28.347Z,98357.34
2023-02-21T21:20:51.172Z,98358.28
2023-02-21T21:24:13.054Z,98356.09
2023-02-21T21:27:35.449Z,98354.06
2023-02-21T21:31:01.512Z,98354.00
2023-02-21T21:34:26.675Z,98351.34
2023-02-21T21:37:50.083Z,98340.69
2023-02-21T21:41:15.302Z,98338.47
2023-02-21T21:44:45.383Z,98344.75
2023-02-21T21:48:14.890Z,98334.44
2023-02-21T21:51:37.592Z,98337.59
2023-02-21T21:54:59.511Z,98322.00
2023-02-21T21:58:25.613Z,98325.75
2023-02-21T22:01:48.548Z,98324.50
2023-02-21T22:05:10.490Z,98321.03
2023-02-21T22:08:34.339Z,98319.56
2023-02-21T22:12:07.733Z,98312.84
2023-02-21T22:15:30.149Z,98309.13
2023-02-21T22:18:53.265Z,98315.22
2023-02-21T22:22:16.335Z,98308.94
2023-02-21T22:25:40.167Z,98310.41
2023-02-21T22:29:06.384Z,98303.84
2023-02-21T22:32:28.252Z,98294.91
2023-02-21T22:35:50.260Z,98291.53
2023-02-21T22:39:12.657Z,98288.69
2023-02-21T22:42:35.754Z,98277.44
2023-02-21T22:45:58.113Z,98282.56
2023-02-21T22:49:20.924Z,98277.28
2023-02-21T22:52:44.766Z,98279.47
2023-02-21T22:56:09.892Z,98280.81
2023-02-21T22:59:35.201Z,98281.25
2023-02-21T23:02:57.133Z,98283.94
2023-02-21T23:06:24.863Z,98272.25
2023-02-21T23:09:48.475Z,98275.00
2023-02-21T23:13:16.680Z,98274.81
2023-02-21T23:16:38.516Z,98278.34
2023-02-21T23:20:00.325Z,98273.81
2023-02-21T23:23:28.357Z,98275.19
2023-02-21T23:26:57.013Z,98265.94
2023-02-21T23:30:20.521Z,98265.72
2023-02-21T23:33:42.412Z,98264.44
2023-02-21T23:37:07.139Z,98267.84
2023-02-21T23:40:31.807Z,98262.00
2023-02-21T23:44:02.588Z,98268.38
2023-02-21T23:47:28.857Z,98264.25
2023-02-21T23:50:51.408Z,98259.94
2023-02-21T23:54:15.105Z,98258.97
2023-02-21T23:57:42.841Z,98266.31
